sensor_id;sensor_type;location;lat;lon;timestamp;temperature;humidity
3948;DHT22;1988;48.694;9.562;2022-08-20T00:00:19;24.40;99.90
3948;DHT22;1988;48.694;9.562;2022-08-20T00:02:47;24.40;99.90
3948;DHT22;1988;48.694;9.562;2022-08-20T00:05:13;24.40;99.90
3948;DHT22;1988;48.694;9.562;2022-08-20T00:07:39;24.40;99.90
3948;DHT22;1988;48.694;9.562;2022-08-20T00:10:05;24.40;99.90
3948;DHT22;1988;48.694;9.562;2022-08-20T00:12:32;24.40;99.90
3948;DHT22;1988;48.694;9.562;2022-08-20T00:14:57;24.40;99.90
3948;DHT22;1988;48.694;9.562;2022-08-20T00:17:23;24.40;99.90
3948;DHT22;1988;48.694;9.562;2022-08-20T00:19:48;24.40;99.90
3948;DHT22;1988;48.694;9.562;2022-08-20T00:22:14;24.40;99.90
3948;DHT22;1988;48.694;9.562;2022-08-20T00:24:39;24.40;99.90
3948;DHT22;1988;48.694;9.562;2022-08-20T00:27:05;24.40;99.90
3948;DHT22;1988;48.694;9.562;2022-08-20T00:29:31;24.40;99.90
3948;DHT22;1988;48.694;9.562;2022-08-20T00:31:56;24.40;99.90
3948;DHT22;1988;48.694;9.562;2022-08-20T00:34:22;24.30;99.90
3948;DHT22;1988;48.694;9.562;2022-08-20T00:36:47;24.40;99.90
3948;DHT22;1988;48.694;9.562;2022-08-20T00:39:13;24.30;99.90
3948;DHT22;1988;48.694;9.562;2022-08-20T00:41:38;24.30;99.90
3948;DHT22;1988;48.694;9.562;2022-08-20T00:44:11;24.40;99.90
3948;DHT22;1988;48.694;9.562;2022-08-20T00:46:37;24.30;99.90
3948;DHT22;1988;48.694;9.562;2022-08-20T00:49:03;24.40;99.90
3948;DHT22;1988;48.694;9.562;2022-08-20T00:54:11;24.30;99.90
3948;DHT22;1988;48.694;9.562;2022-08-20T00:56:38;24.30;99.90
3948;DHT22;1988;48.694;9.562;2022-08-20T00:59:07;24.30;99.90
3948;DHT22;1988;48.694;9.562;2022-08-20T01:01:36;24.30;99.90
3948;DHT22;1988;48.694;9.562;2022-08-20T01:04:01;24.30;99.90
3948;DHT22;1988;48.694;9.562;2022-08-20T01:06:27;24.30;99.90
3948;DHT22;1988;48.694;9.562;2022-08-20T01:08:52;24.30;99.90
3948;DHT22;1988;48.694;9.562;2022-08-20T01:11:18;24.30;99.90
3948;DHT22;1988;48.694;9.562;2022-08-20T01:13:47;24.30;99.90
3948;DHT22;1988;48.694;9.562;2022-08-20T01:16:20;24.30;99.90
3948;DHT22;1988;48.694;9.562;2022-08-20T01:18:47;24.30;99.90
3948;DHT22;1988;48.694;9.562;2022-08-20T01:21:14;24.30;99.90
3948;DHT22;1988;48.694;9.562;2022-08-20T01:26:43;24.30;99.90
3948;DHT22;1988;48.694;9.562;2022-08-20T01:29:11;24.30;99.90
3948;DHT22;1988;48.694;9.562;2022-08-20T01:31:38;24.30;99.90
3948;DHT22;1988;48.694;9.562;2022-08-20T01:34:05;24.30;99.90
3948;DHT22;1988;48.694;9.562;2022-08-20T01:36:36;24.30;99.90
3948;DHT22;1988;48.694;9.562;2022-08-20T01:39:03;24.30;99.90
3948;DHT22;1988;48.694;9.562;2022-08-20T01:41:32;24.30;99.90
3948;DHT22;1988;48.694;9.562;2022-08-20T01:43:59;24.30;99.90
3948;DHT22;1988;48.694;9.562;2022-08-20T01:46:26;24.30;99.90
3948;DHT22;1988;48.694;9.562;2022-08-20T01:48:52;24.30;99.90
3948;DHT22;1988;48.694;9.562;2022-08-20T01:51:20;24.20;99.90
3948;DHT22;1988;48.694;9.562;2022-08-20T01:53:47;24.20;99.90
3948;DHT22;1988;48.694;9.562;2022-08-20T01:56:14;24.30;99.90
3948;DHT22;1988;48.694;9.562;2022-08-20T01:58:42;24.20;99.90
3948;DHT22;1988;48.694;9.562;2022-08-20T02:01:17;24.20;99.90
3948;DHT22;1988;48.694;9.562;2022-08-20T02:03:43;24.20;99.90
3948;DHT22;1988;48.694;9.562;2022-08-20T02:06:08;24.20;99.90
3948;DHT22;1988;48.694;9.562;2022-08-20T02:08:34;24.20;99.90
3948;DHT22;1988;48.694;9.562;2022-08-20T02:11:00;24.20;99.90
3948;DHT22;1988;48.694;9.562;2022-08-20T02:13:25;24.20;99.90
3948;DHT22;1988;48.694;9.562;2022-08-20T02:15:51;24.20;99.90
3948;DHT22;1988;48.694;9.562;2022-08-20T02:18:17;24.20;99.90
3948;DHT22;1988;48.694;9.562;2022-08-20T02:20:43;24.20;99.90
3948;DHT22;1988;48.694;9.562;2022-08-20T02:23:09;24.20;99.90
3948;DHT22;1988;48.694;9.562;2022-08-20T02:25:36;24.10;99.90
3948;DHT22;1988;48.694;9.562;2022-08-20T02:28:04;24.20;99.90
3948;DHT22;1988;48.694;9.562;2022-08-20T02:30:32;24.10;99.90
3948;DHT22;1988;48.694;9.562;2022-08-20T02:32:58;24.10;99.90
3948;DHT22;1988;48.694;9.562;2022-08-20T02:35:24;24.10;99.90
3948;DHT22;1988;48.694;9.562;2022-08-20T02:37:50;24.10;99.90
3948;DHT22;1988;48.694;9.562;2022-08-20T02:40:16;24.10;99.90
3948;DHT22;1988;48.694;9.562;2022-08-20T02:42:42;24.10;99.90
3948;DHT22;1988;48.694;9.562;2022-08-20T02:45:12;24.10;99.90
3948;DHT22;1988;48.694;9.562;2022-08-20T02:47:39;24.10;99.90
3948;DHT22;1988;48.694;9.562;2022-08-20T02:50:05;24.10;99.90
3948;DHT22;1988;48.694;9.562;2022-08-20T02:52:31;24.10;99.90
3948;DHT22;1988;48.694;9.562;2022-08-20T02:54:57;24.10;99.90
3948;DHT22;1988;48.694;9.562;2022-08-20T02:57:22;24.10;99.90
3948;DHT22;1988;48.694;9.562;2022-08-20T02:59:48;24.10;99.90
3948;DHT22;1988;48.694;9.562;2022-08-20T03:02:16;24.00;99.90
3948;DHT22;1988;48.694;9.562;2022-08-20T03:04:42;24.10;99.90
3948;DHT22;1988;48.694;9.562;2022-08-20T03:07:07;24.00;99.90
3948;DHT22;1988;48.694;9.562;2022-08-20T03:09:34;24.10;99.90
3948;DHT22;1988;48.694;9.562;2022-08-20T03:12:00;24.00;99.90
3948;DHT22;1988;48.694;9.562;2022-08-20T03:14:27;24.00;99.90
3948;DHT22;1988;48.694;9.562;2022-08-20T03:16:52;24.00;99.90
3948;DHT22;1988;48.694;9.562;2022-08-20T03:19:18;24.00;99.90
3948;DHT22;1988;48.694;9.562;2022-08-20T03:21:43;24.00;99.90
3948;DHT22;1988;48.694;9.562;2022-08-20T03:24:09;24.00;99.90
3948;DHT22;1988;48.694;9.562;2022-08-20T03:26:34;23.90;99.90
3948;DHT22;1988;48.694;9.562;2022-08-20T03:29:00;23.90;99.90
3948;DHT22;1988;48.694;9.562;2022-08-20T03:31:25;23.90;99.90
3948;DHT22;1988;48.694;9.562;2022-08-20T03:33:51;24.00;99.90
3948;DHT22;1988;48.694;9.562;2022-08-20T03:36:16;23.90;99.90
3948;DHT22;1988;48.694;9.562;2022-08-20T03:38:43;23.90;99.90
3948;DHT22;1988;48.694;9.562;2022-08-20T03:41:09;23.90;99.90
3948;DHT22;1988;48.694;9.562;2022-08-20T03:43:34;23.90;99.90
3948;DHT22;1988;48.694;9.562;2022-08-20T03:46:01;23.90;99.90
3948;DHT22;1988;48.694;9.562;2022-08-20T03:48:27;23.90;99.90
3948;DHT22;1988;48.694;9.562;2022-08-20T03:50:53;23.90;99.90
3948;DHT22;1988;48.694;9.562;2022-08-20T03:53:20;23.90;99.90
3948;DHT22;1988;48.694;9.562;2022-08-20T03:55:47;23.90;99.90
3948;DHT22;1988;48.694;9.562;2022-08-20T03:58:13;23.90;99.90
3948;DHT22;1988;48.694;9.562;2022-08-20T04:00:44;23.90;99.90
3948;DHT22;1988;48.694;9.562;2022-08-20T04:03:10;23.90;99.90
3948;DHT22;1988;48.694;9.562;2022-08-20T04:05:36;23.80;99.90
3948;DHT22;1988;48.694;9.562;2022-08-20T04:08:09;23.80;99.90
3948;DHT22;1988;48.694;9.562;2022-08-20T04:10:35;23.80;99.90
3948;DHT22;1988;48.694;9.562;2022-08-20T04:13:02;23.80;99.90
3948;DHT22;1988;48.694;9.562;2022-08-20T04:15:28;23.80;99.90
3948;DHT22;1988;48.694;9.562;2022-08-20T04:17:53;23.80;99.90
3948;DHT22;1988;48.694;9.562;2022-08-20T04:20:20;23.80;99.90
3948;DHT22;1988;48.694;9.562;2022-08-20T04:22:53;23.80;99.90
3948;DHT22;1988;48.694;9.562;2022-08-20T04:25:19;23.80;99.90
3948;DHT22;1988;48.694;9.562;2022-08-20T04:27:46;23.80;99.90
3948;DHT22;1988;48.694;9.562;2022-08-20T04:30:15;23.80;99.90
3948;DHT22;1988;48.694;9.562;2022-08-20T04:32:40;23.70;99.90
3948;DHT22;1988;48.694;9.562;2022-08-20T04:35:07;23.70;99.90
3948;DHT22;1988;48.694;9.562;2022-08-20T04:37:33;23.60;99.90
3948;DHT22;1988;48.694;9.562;2022-08-20T04:40:06;23.50;99.90
3948;DHT22;1988;48.694;9.562;2022-08-20T04:42:51;23.50;99.90
3948;DHT22;1988;48.694;9.562;2022-08-20T04:45:17;23.40;99.90
3948;DHT22;1988;48.694;9.562;2022-08-20T04:47:42;23.30;99.90
3948;DHT22;1988;48.694;9.562;2022-08-20T04:50:09;23.30;99.90
3948;DHT22;1988;48.694;9.562;2022-08-20T04:52:35;23.20;99.90
3948;DHT22;1988;48.694;9.562;2022-08-20T04:55:02;23.20;99.90
3948;DHT22;1988;48.694;9.562;2022-08-20T04:57:30;23.20;99.90
3948;DHT22;1988;48.694;9.562;2022-08-20T04:59:55;23.10;99.90
3948;DHT22;1988;48.694;9.562;2022-08-20T05:02:21;23.10;99.90
3948;DHT22;1988;48.694;9.562;2022-08-20T05:04:46;23.10;99.90
3948;DHT22;1988;48.694;9.562;2022-08-20T05:07:12;23.10;99.90
3948;DHT22;1988;48.694;9.562;2022-08-20T05:09:39;23.00;99.90
3948;DHT22;1988;48.694;9.562;2022-08-20T05:12:05;23.00;99.90
3948;DHT22;1988;48.694;9.562;2022-08-20T05:14:30;23.00;99.90
3948;DHT22;1988;48.694;9.562;2022-08-20T05:16:56;22.90;99.90
3948;DHT22;1988;48.694;9.562;2022-08-20T05:19:24;22.80;99.90
3948;DHT22;1988;48.694;9.562;2022-08-20T05:21:50;22.80;99.90
3948;DHT22;1988;48.694;9.562;2022-08-20T05:24:20;22.80;99.90
3948;DHT22;1988;48.694;9.562;2022-08-20T05:26:46;22.80;99.90
3948;DHT22;1988;48.694;9.562;2022-08-20T05:29:12;22.80;99.90
3948;DHT22;1988;48.694;9.562;2022-08-20T05:31:37;22.80;99.90
3948;DHT22;1988;48.694;9.562;2022-08-20T05:34:04;22.90;99.90
3948;DHT22;1988;48.694;9.562;2022-08-20T05:36:34;22.90;99.90
3948;DHT22;1988;48.694;9.562;2022-08-20T05:39:00;23.00;99.90
3948;DHT22;1988;48.694;9.562;2022-08-20T05:41:25;23.00;99.90
3948;DHT22;1988;48.694;9.562;2022-08-20T05:43:53;23.10;99.90
3948;DHT22;1988;48.694;9.562;2022-08-20T05:46:19;23.10;99.90
3948;DHT22;1988;48.694;9.562;2022-08-20T05:48:44;23.10;99.90
3948;DHT22;1988;48.694;9.562;2022-08-20T05:51:10;23.20;99.90
3948;DHT22;1988;48.694;9.562;2022-08-20T05:53:35;23.20;99.90
3948;DHT22;1988;48.694;9.562;2022-08-20T05:56:02;23.30;99.90
3948;DHT22;1988;48.694;9.562;2022-08-20T05:58:27;23.30;99.90
3948;DHT22;1988;48.694;9.562;2022-08-20T06:00:55;23.30;99.90
3948;DHT22;1988;48.694;9.562;2022-08-20T06:03:21;23.30;99.90
3948;DHT22;1988;48.694;9.562;2022-08-20T06:06:05;23.30;99.90
3948;DHT22;1988;48.694;9.562;2022-08-20T06:08:31;23.40;99.90
3948;DHT22;1988;48.694;9.562;2022-08-20T06:10:56;23.40;99.90
3948;DHT22;1988;48.694;9.562;2022-08-20T06:13:22;23.40;99.90
3948;DHT22;1988;48.694;9.562;2022-08-20T06:15:47;23.40;99.90
3948;DHT22;1988;48.694;9.562;2022-08-20T06:18:13;23.40;99.90
3948;DHT22;1988;48.694;9.562;2022-08-20T06:20:38;23.40;99.90
3948;DHT22;1988;48.694;9.562;2022-08-20T06:23:04;23.40;99.90
3948;DHT22;1988;48.694;9.562;2022-08-20T06:25:30;23.40;99.90
3948;DHT22;1988;48.694;9.562;2022-08-20T06:27:56;23.40;99.90
3948;DHT22;1988;48.694;9.562;2022-08-20T06:30:21;23.50;99.90
3948;DHT22;1988;48.694;9.562;2022-08-20T06:32:47;23.50;99.90
3948;DHT22;1988;48.694;9.562;2022-08-20T06:35:15;23.50;99.90
3948;DHT22;1988;48.694;9.562;2022-08-20T06:37:40;23.50;99.90
3948;DHT22;1988;48.694;9.562;2022-08-20T06:42:36;23.50;99.90
3948;DHT22;1988;48.694;9.562;2022-08-20T06:45:08;23.50;99.90
3948;DHT22;1988;48.694;9.562;2022-08-20T06:47:35;23.50;99.90
3948;DHT22;1988;48.694;9.562;2022-08-20T06:50:03;23.60;99.90
3948;DHT22;1988;48.694;9.562;2022-08-20T06:52:31;23.60;99.90
3948;DHT22;1988;48.694;9.562;2022-08-20T06:54:57;23.60;99.90
3948;DHT22;1988;48.694;9.562;2022-08-20T06:57:23;23.60;99.90
3948;DHT22;1988;48.694;9.562;2022-08-20T06:59:49;23.60;99.90
3948;DHT22;1988;48.694;9.562;2022-08-20T07:02:14;23.70;99.90
3948;DHT22;1988;48.694;9.562;2022-08-20T07:04:41;23.70;99.90
3948;DHT22;1988;48.694;9.562;2022-08-20T07:07:13;23.70;99.90
3948;DHT22;1988;48.694;9.562;2022-08-20T07:09:39;23.70;99.90
3948;DHT22;1988;48.694;9.562;2022-08-20T07:12:05;23.70;99.90
3948;DHT22;1988;48.694;9.562;2022-08-20T07:14:30;23.70;99.90
3948;DHT22;1988;48.694;9.562;2022-08-20T07:16:56;23.80;99.90
3948;DHT22;1988;48.694;9.562;2022-08-20T07:19:22;23.80;99.90
3948;DHT22;1988;48.694;9.562;2022-08-20T07:21:47;23.80;99.90
3948;DHT22;1988;48.694;9.562;2022-08-20T07:24:13;23.80;99.90
3948;DHT22;1988;48.694;9.562;2022-08-20T07:26:39;23.80;99.90
3948;DHT22;1988;48.694;9.562;2022-08-20T07:29:04;23.80;99.90
3948;DHT22;1988;48.694;9.562;2022-08-20T07:31:30;23.80;99.90
3948;DHT22;1988;48.694;9.562;2022-08-20T07:34:14;23.90;99.90
